WetterOnline ( https://www.wetteronline.de )

Wetter aktuell Ostrava

Aktuelles Wetter: Ostrava (260m)

6-stündlich | Neueste Meldungen
Ortszeit Temperatur Wetter
Di, 10.12. 13:00 5.7° C leicht bewölkt
Di, 10.12. 7:00 3.7° C leichte Schauer
Di, 10.12. 1:00 2.8° C bedeckt
Mo, 09.12. 19:00 4.5° C wolkig
Mo, 09.12. 13:00 5.9° C wolkig
Mo, 09.12. 7:00 3.9° C bedeckt
Mo, 09.12. 1:00 6.0° C wolkig
So, 08.12. 19:00 7.1° C leicht bewölkt
Ortszeit Temperatur Wetter
Di, 10.12. 15:00 3° C -
Di, 10.12. 14:30 4° C -
Di, 10.12. 14:00 5.4° C leicht bewölkt
Di, 10.12. 13:30 5° C leicht bewölkt
Di, 10.12. 13:00 5.7° C leicht bewölkt
Di, 10.12. 12:30 5° C leicht bewölkt
Di, 10.12. 12:00 4.7° C leicht bewölkt
Di, 10.12. 11:30 4° C leicht bewölkt
Ortszeit Relative Feuchte Sichtweite
Di, 10.12. 13:00 51% 35 km
Di, 10.12. 7:00 87% 10 km
Di, 10.12. 1:00 92% 12 km
Mo, 09.12. 19:00 88% 12 km
Mo, 09.12. 13:00 85% 12 km
Mo, 09.12. 7:00 92% 7 km
Mo, 09.12. 1:00 71% 20 km
So, 08.12. 19:00 64% 20 km
Ortszeit Relative Feuchte Sichtweite
Di, 10.12. 15:00 60% >10 km
Di, 10.12. 14:30 60% >10 km
Di, 10.12. 14:00 50% 35 km
Di, 10.12. 13:30 52% >10 km
Di, 10.12. 13:00 51% 35 km
Di, 10.12. 12:30 52% >10 km
Di, 10.12. 12:00 56% 30 km
Di, 10.12. 11:30 70% >10 km
Ortszeit Niederschlagsmenge Niederschlagsart
Di, 10.12. 13:00 0.1 l/m2 in 6 Std. Schauer
Di, 10.12. 7:00 0.1 l/m2 in 12 Std. Schauer
Di, 10.12. 1:00 0.0 l/m2 in 6 Std. -
Mo, 09.12. 19:00 0.0 l/m2 in 12 Std. -
Mo, 09.12. 13:00 0.0 l/m2 in 6 Std. -
Mo, 09.12. 7:00 0.1 l/m2 in 12 Std. Regen
Mo, 09.12. 1:00 0.0 l/m2 in 6 Std. -
So, 08.12. 19:00 0.0 l/m2 in 12 Std. -
Ortszeit Niederschlagsmenge Niederschlagsart
Di, 10.12. 15:00 keine Meldung -
Di, 10.12. 14:30 keine Meldung -
Di, 10.12. 14:00 0.0 l/m2 in 1 Std. -
Di, 10.12. 13:30 keine Meldung -
Di, 10.12. 13:00 0.0 l/m2 in 1 Std. Schauer
Di, 10.12. 12:30 keine Meldung -
Di, 10.12. 12:00 0.0 l/m2 in 1 Std. -
Di, 10.12. 11:30 keine Meldung -
Ortszeit Stärke Spitze Richtung
km/h Bft. km/h Grad Sektor
Di, 10.12. 13:00 22 4 - 340° N
Di, 10.12. 7:00 7 2 - uml. uml.
Di, 10.12. 1:00 18 3 - 240° SW
Mo, 09.12. 19:00 7 2 - 210° SW
Mo, 09.12. 13:00 7 2 - uml. uml.
Mo, 09.12. 7:00 22 4 54 250° W
Mo, 09.12. 1:00 40 6 61 220° SW
So, 08.12. 19:00 18 3 54 230° SW
Ortszeit Stärke Spitze Richtung
km/h Bft. km/h Grad Sektor
Di, 10.12. 15:00 15 3 - 360° N
Di, 10.12. 14:30 19 3 - 360° N
Di, 10.12. 14:00 14 3 - 340° N
Di, 10.12. 13:30 17 3 - 350° N
Di, 10.12. 13:00 22 4 - 340° N
Di, 10.12. 12:30 20 4 - 330° NW
Di, 10.12. 12:00 22 4 - 340° N
Di, 10.12. 11:30 15 3 - 350° N
Ortszeit Untergrenze Bedeckung Gattung
total tief tief mittel hoch
Di, 10.12. 13:00 1290 m 2/8 2/8 Cu - -
Di, 10.12. 7:00 900 m 8/8 8/8 Cu - -
Di, 10.12. 1:00 1500 m 8/8 7/8 Sc - -
Mo, 09.12. 19:00 3300 m 8/8 8/8 - Ns -
Mo, 09.12. 13:00 450 m 8/8 1/8 Sc Ac -
Mo, 09.12. 7:00 990 m 8/8 8/8 Sc - -
Mo, 09.12. 1:00 2700 m 8/8 8/8 - Ac -
So, 08.12. 19:00 4500 m 6/8 5/8 - Ac Ci
Ortszeit Bedeckungsgrad in Achtel und Wolkenuntergrenze
Di, 10.12. 15:00 keine Wolken(unter 1500 m)
Di, 10.12. 14:30 keine Wolken(unter 1500 m)
Di, 10.12. 14:00 2(1380m)
Di, 10.12. 13:30 1-2(1350m)
Di, 10.12. 13:00 2(1290m)
Di, 10.12. 12:30 1-2(1320m)
Di, 10.12. 12:00 2(990m)
Di, 10.12. 11:30 1-2(1200m)
Ortszeit Luftdruck NN (hPa) Tendenz (hPa in 3 Std.)
Di, 10.12. 13:00 1022 + 1,6
Di, 10.12. 7:00 1017 + 3,8
Di, 10.12. 1:00 1011 + 1,6
Mo, 09.12. 19:00 1008 + 0,8
Mo, 09.12. 13:00 1007 - 0,5
Mo, 09.12. 7:00 1007 + 0,6
Mo, 09.12. 1:00 1005 - 2,2
So, 08.12. 19:00 1009 0,0
Ortszeit Luftdruck NN (hPa) Tendenz (hPa in 3 Std.)
Di, 10.12. 15:00 1022 keine Meldung
Di, 10.12. 14:30 1022 keine Meldung
Di, 10.12. 14:00 1023 + 1,5
Di, 10.12. 13:30 1021 keine Meldung
Di, 10.12. 13:00 1022 + 1,6
Di, 10.12. 12:30 1021 keine Meldung
Di, 10.12. 12:00 1022 + 2,5
Di, 10.12. 11:30 1020 keine Meldung
Ortszeit Schneehöhe (cm)
Di, 10.12. 13:00 -
Di, 10.12. 7:00 -
Di, 10.12. 1:00 -
Mo, 09.12. 19:00 -
Mo, 09.12. 13:00 -
Mo, 09.12. 7:00 -
Mo, 09.12. 1:00 -
So, 08.12. 19:00 0
Ortszeit Schneehöhe (cm)
Di, 10.12. 15:00 -
Di, 10.12. 14:30 -
Di, 10.12. 14:00 -
Di, 10.12. 13:30 -
Di, 10.12. 13:00 -
Di, 10.12. 12:30 -
Di, 10.12. 12:00 -
Di, 10.12. 11:30 -
Link zu dieser Seite / Seite empfehlen

Das Wetter in ...